sensor_id;sensor_type;location;lat;lon;timestamp;P1;durP1;ratioP1;P2;durP2;ratioP2
80400;SDS011;69727;53.132;8.230;2023-06-01T00:01:36;12.57;;;4.23;;
80400;SDS011;69727;53.132;8.230;2023-06-01T00:04:02;15.18;;;5.82;;
80400;SDS011;69727;53.132;8.230;2023-06-01T00:06:28;8.15;;;4.00;;
80400;SDS011;69727;53.132;8.230;2023-06-01T00:08:55;11.23;;;4.20;;
80400;SDS011;69727;53.132;8.230;2023-06-01T00:11:21;11.85;;;4.13;;
80400;SDS011;69727;53.132;8.230;2023-06-01T00:13:48;11.32;;;4.30;;
80400;SDS011;69727;53.132;8.230;2023-06-01T00:16:14;9.85;;;4.03;;
80400;SDS011;69727;53.132;8.230;2023-06-01T00:18:40;14.50;;;4.78;;
80400;SDS011;69727;53.132;8.230;2023-06-01T00:21:06;14.18;;;3.85;;
80400;SDS011;69727;53.132;8.230;2023-06-01T00:23:32;10.43;;;3.85;;
80400;SDS011;69727;53.132;8.230;2023-06-01T00:25:59;12.27;;;4.07;;
80400;SDS011;69727;53.132;8.230;2023-06-01T00:28:25;12.10;;;3.83;;
80400;SDS011;69727;53.132;8.230;2023-06-01T00:30:51;12.27;;;4.00;;
80400;SDS011;69727;53.132;8.230;2023-06-01T00:33:18;10.75;;;4.25;;
80400;SDS011;69727;53.132;8.230;2023-06-01T00:35:44;11.32;;;3.42;;
80400;SDS011;69727;53.132;8.230;2023-06-01T00:38:09;9.50;;;3.78;;
80400;SDS011;69727;53.132;8.230;2023-06-01T00:40:36;10.90;;;3.90;;
80400;SDS011;69727;53.132;8.230;2023-06-01T00:43:01;11.88;;;3.75;;
80400;SDS011;69727;53.132;8.230;2023-06-01T00:45:27;10.63;;;3.45;;
80400;SDS011;69727;53.132;8.230;2023-06-01T00:47:53;9.60;;;3.60;;
80400;SDS011;69727;53.132;8.230;2023-06-01T00:50:18;10.95;;;3.35;;
80400;SDS011;69727;53.132;8.230;2023-06-01T00:52:44;11.55;;;3.85;;
80400;SDS011;69727;53.132;8.230;2023-06-01T00:55:10;10.07;;;3.60;;
80400;SDS011;69727;53.132;8.230;2023-06-01T00:57:36;10.88;;;4.20;;
80400;SDS011;69727;53.132;8.230;2023-06-01T01:00:04;14.65;;;4.15;;
80400;SDS011;69727;53.132;8.230;2023-06-01T01:02:37;12.93;;;3.78;;
80400;SDS011;69727;53.132;8.230;2023-06-01T01:05:04;12.70;;;3.53;;
80400;SDS011;69727;53.132;8.230;2023-06-01T01:21:19;11.52;;;3.45;;
80400;SDS011;69727;53.132;8.230;2023-06-01T01:29:52;8.38;;;3.25;;
80400;SDS011;69727;53.132;8.230;2023-06-01T01:32:19;11.25;;;3.67;;
80400;SDS011;69727;53.132;8.230;2023-06-01T01:34:48;11.25;;;3.78;;
80400;SDS011;69727;53.132;8.230;2023-06-01T01:37:16;11.10;;;3.50;;
80400;SDS011;69727;53.132;8.230;2023-06-01T01:39:41;11.35;;;3.90;;
80400;SDS011;69727;53.132;8.230;2023-06-01T01:42:07;17.98;;;4.65;;
80400;SDS011;69727;53.132;8.230;2023-06-01T01:44:33;13.70;;;3.60;;
80400;SDS011;69727;53.132;8.230;2023-06-01T01:47:01;11.38;;;3.30;;
80400;SDS011;69727;53.132;8.230;2023-06-01T01:49:41;13.60;;;3.70;;
80400;SDS011;69727;53.132;8.230;2023-06-01T01:57:06;7.57;;;2.88;;
80400;SDS011;69727;53.132;8.230;2023-06-01T01:59:33;8.02;;;3.15;;
80400;SDS011;69727;53.132;8.230;2023-06-01T02:01:59;10.43;;;3.15;;
80400;SDS011;69727;53.132;8.230;2023-06-01T02:04:25;11.50;;;3.80;;
80400;SDS011;69727;53.132;8.230;2023-06-01T02:06:50;8.82;;;3.05;;
80400;SDS011;69727;53.132;8.230;2023-06-01T02:09:16;11.15;;;3.45;;
80400;SDS011;69727;53.132;8.230;2023-06-01T02:11:41;12.23;;;3.13;;
80400;SDS011;69727;53.132;8.230;2023-06-01T02:14:08;10.38;;;3.30;;
80400;SDS011;69727;53.132;8.230;2023-06-01T02:16:33;9.98;;;4.22;;
80400;SDS011;69727;53.132;8.230;2023-06-01T02:18:59;7.07;;;2.70;;
80400;SDS011;69727;53.132;8.230;2023-06-01T02:21:24;12.63;;;3.50;;
80400;SDS011;69727;53.132;8.230;2023-06-01T02:23:50;8.30;;;3.25;;
80400;SDS011;69727;53.132;8.230;2023-06-01T02:26:15;10.52;;;3.95;;
80400;SDS011;69727;53.132;8.230;2023-06-01T02:28:41;8.45;;;3.25;;
80400;SDS011;69727;53.132;8.230;2023-06-01T02:31:08;10.23;;;3.30;;
80400;SDS011;69727;53.132;8.230;2023-06-01T02:33:33;11.15;;;3.60;;
80400;SDS011;69727;53.132;8.230;2023-06-01T02:35:59;11.83;;;3.53;;
80400;SDS011;69727;53.132;8.230;2023-06-01T02:38:25;8.85;;;3.50;;
80400;SDS011;69727;53.132;8.230;2023-06-01T02:40:51;7.95;;;3.00;;
80400;SDS011;69727;53.132;8.230;2023-06-01T02:43:16;7.97;;;3.67;;
80400;SDS011;69727;53.132;8.230;2023-06-01T02:45:42;12.43;;;3.58;;
80400;SDS011;69727;53.132;8.230;2023-06-01T02:48:07;8.43;;;3.27;;
80400;SDS011;69727;53.132;8.230;2023-06-01T02:50:33;8.98;;;3.63;;
80400;SDS011;69727;53.132;8.230;2023-06-01T02:52:58;13.53;;;4.03;;
80400;SDS011;69727;53.132;8.230;2023-06-01T02:55:23;8.23;;;3.20;;
80400;SDS011;69727;53.132;8.230;2023-06-01T02:57:49;8.07;;;3.00;;
80400;SDS011;69727;53.132;8.230;2023-06-01T03:00:14;10.77;;;3.58;;
80400;SDS011;69727;53.132;8.230;2023-06-01T03:02:43;7.03;;;2.75;;
80400;SDS011;69727;53.132;8.230;2023-06-01T03:05:12;11.27;;;3.40;;
80400;SDS011;69727;53.132;8.230;2023-06-01T03:07:42;11.68;;;3.45;;
80400;SDS011;69727;53.132;8.230;2023-06-01T03:10:10;14.23;;;3.38;;
80400;SDS011;69727;53.132;8.230;2023-06-01T03:12:36;10.23;;;3.17;;
80400;SDS011;69727;53.132;8.230;2023-06-01T03:15:02;9.27;;;3.05;;
80400;SDS011;69727;53.132;8.230;2023-06-01T03:17:28;10.65;;;3.38;;
80400;SDS011;69727;53.132;8.230;2023-06-01T03:19:53;11.55;;;3.67;;
80400;SDS011;69727;53.132;8.230;2023-06-01T03:22:19;9.95;;;3.28;;
80400;SDS011;69727;53.132;8.230;2023-06-01T03:24:44;12.57;;;3.47;;
80400;SDS011;69727;53.132;8.230;2023-06-01T03:27:12;13.05;;;3.55;;
80400;SDS011;69727;53.132;8.230;2023-06-01T03:29:38;11.25;;;3.70;;
80400;SDS011;69727;53.132;8.230;2023-06-01T03:32:03;12.30;;;3.00;;
80400;SDS011;69727;53.132;8.230;2023-06-01T03:34:29;7.70;;;2.63;;
80400;SDS011;69727;53.132;8.230;2023-06-01T03:36:57;9.02;;;2.70;;
80400;SDS011;69727;53.132;8.230;2023-06-01T03:39:23;6.60;;;2.70;;
80400;SDS011;69727;53.132;8.230;2023-06-01T03:41:48;8.07;;;2.70;;
80400;SDS011;69727;53.132;8.230;2023-06-01T03:44:14;12.43;;;3.17;;
80400;SDS011;69727;53.132;8.230;2023-06-01T03:46:39;8.80;;;2.60;;
80400;SDS011;69727;53.132;8.230;2023-06-01T03:49:05;9.10;;;3.03;;
80400;SDS011;69727;53.132;8.230;2023-06-01T03:51:31;10.30;;;3.00;;
80400;SDS011;69727;53.132;8.230;2023-06-01T03:53:56;10.70;;;3.53;;
80400;SDS011;69727;53.132;8.230;2023-06-01T03:56:22;9.45;;;3.03;;
80400;SDS011;69727;53.132;8.230;2023-06-01T03:58:47;7.90;;;3.00;;
80400;SDS011;69727;53.132;8.230;2023-06-01T04:01:13;9.80;;;3.22;;
80400;SDS011;69727;53.132;8.230;2023-06-01T04:03:45;6.97;;;2.58;;
80400;SDS011;69727;53.132;8.230;2023-06-01T04:06:11;8.05;;;2.53;;
80400;SDS011;69727;53.132;8.230;2023-06-01T04:08:43;11.45;;;2.60;;
80400;SDS011;69727;53.132;8.230;2023-06-01T04:11:15;9.73;;;2.92;;
80400;SDS011;69727;53.132;8.230;2023-06-01T04:13:41;8.38;;;2.63;;
80400;SDS011;69727;53.132;8.230;2023-06-01T04:16:08;8.70;;;2.95;;
80400;SDS011;69727;53.132;8.230;2023-06-01T04:18:34;8.73;;;2.83;;
80400;SDS011;69727;53.132;8.230;2023-06-01T04:21:00;7.78;;;2.83;;
80400;SDS011;69727;53.132;8.230;2023-06-01T04:23:25;9.52;;;2.92;;
80400;SDS011;69727;53.132;8.230;2023-06-01T04:25:50;11.48;;;3.40;;
80400;SDS011;69727;53.132;8.230;2023-06-01T04:28:16;9.40;;;2.95;;
80400;SDS011;69727;53.132;8.230;2023-06-01T04:30:42;9.20;;;3.05;;
80400;SDS011;69727;53.132;8.230;2023-06-01T04:33:12;6.80;;;2.90;;
80400;SDS011;69727;53.132;8.230;2023-06-01T04:35:38;12.45;;;3.70;;
80400;SDS011;69727;53.132;8.230;2023-06-01T04:38:04;11.13;;;3.05;;
80400;SDS011;69727;53.132;8.230;2023-06-01T04:40:29;10.45;;;3.10;;
80400;SDS011;69727;53.132;8.230;2023-06-01T04:42:55;12.98;;;3.50;;
80400;SDS011;69727;53.132;8.230;2023-06-01T04:45:21;11.13;;;3.88;;
80400;SDS011;69727;53.132;8.230;2023-06-01T04:47:48;12.18;;;4.05;;
80400;SDS011;69727;53.132;8.230;2023-06-01T04:50:15;11.73;;;3.90;;
80400;SDS011;69727;53.132;8.230;2023-06-01T04:52:41;9.95;;;4.20;;
80400;SDS011;69727;53.132;8.230;2023-06-01T04:55:08;12.27;;;3.58;;
80400;SDS011;69727;53.132;8.230;2023-06-01T04:57:36;13.30;;;3.75;;
80400;SDS011;69727;53.132;8.230;2023-06-01T05:00:04;9.23;;;3.42;;
80400;SDS011;69727;53.132;8.230;2023-06-01T05:02:36;11.93;;;4.18;;
80400;SDS011;69727;53.132;8.230;2023-06-01T05:05:02;9.32;;;3.35;;
80400;SDS011;69727;53.132;8.230;2023-06-01T05:07:29;11.32;;;3.58;;
80400;SDS011;69727;53.132;8.230;2023-06-01T05:09:55;8.48;;;3.03;;
80400;SDS011;69727;53.132;8.230;2023-06-01T05:12:20;16.15;;;3.78;;
80400;SDS011;69727;53.132;8.230;2023-06-01T05:14:52;8.57;;;2.92;;
80400;SDS011;69727;53.132;8.230;2023-06-01T05:17:19;7.43;;;3.00;;
80400;SDS011;69727;53.132;8.230;2023-06-01T05:19:44;8.45;;;3.30;;
80400;SDS011;69727;53.132;8.230;2023-06-01T05:22:10;9.10;;;3.42;;
80400;SDS011;69727;53.132;8.230;2023-06-01T05:24:36;9.77;;;3.33;;
80400;SDS011;69727;53.132;8.230;2023-06-01T05:27:02;8.35;;;2.92;;
80400;SDS011;69727;53.132;8.230;2023-06-01T05:29:28;7.63;;;3.50;;
80400;SDS011;69727;53.132;8.230;2023-06-01T05:31:53;8.30;;;3.40;;
80400;SDS011;69727;53.132;8.230;2023-06-01T05:34:19;8.00;;;3.10;;
80400;SDS011;69727;53.132;8.230;2023-06-01T05:36:45;9.20;;;2.72;;
80400;SDS011;69727;53.132;8.230;2023-06-01T05:39:11;7.03;;;2.88;;
80400;SDS011;69727;53.132;8.230;2023-06-01T05:41:37;7.85;;;2.80;;
80400;SDS011;69727;53.132;8.230;2023-06-01T05:44:03;8.85;;;3.08;;
80400;SDS011;69727;53.132;8.230;2023-06-01T05:46:28;11.45;;;4.30;;
80400;SDS011;69727;53.132;8.230;2023-06-01T05:48:54;9.80;;;3.57;;
80400;SDS011;69727;53.132;8.230;2023-06-01T05:51:20;10.38;;;3.17;;
80400;SDS011;69727;53.132;8.230;2023-06-01T05:53:46;8.80;;;2.95;;
80400;SDS011;69727;53.132;8.230;2023-06-01T05:56:40;9.57;;;2.60;;
80400;SDS011;69727;53.132;8.230;2023-06-01T05:59:06;9.10;;;3.00;;
80400;SDS011;69727;53.132;8.230;2023-06-01T06:01:31;7.32;;;3.45;;
80400;SDS011;69727;53.132;8.230;2023-06-01T06:03:57;7.35;;;3.03;;
80400;SDS011;69727;53.132;8.230;2023-06-01T06:06:25;8.85;;;3.08;;
80400;SDS011;69727;53.132;8.230;2023-06-01T06:09:25;9.35;;;2.53;;
80400;SDS011;69727;53.132;8.230;2023-06-01T06:15:42;6.50;;;2.08;;
80400;SDS011;69727;53.132;8.230;2023-06-01T06:18:21;6.55;;;1.90;;
80400;SDS011;69727;53.132;8.230;2023-06-01T06:20:49;6.85;;;1.98;;
80400;SDS011;69727;53.132;8.230;2023-06-01T06:23:14;5.68;;;1.70;;
80400;SDS011;69727;53.132;8.230;2023-06-01T06:25:43;4.50;;;1.65;;
80400;SDS011;69727;53.132;8.230;2023-06-01T06:28:10;4.72;;;1.92;;
80400;SDS011;69727;53.132;8.230;2023-06-01T06:30:37;5.43;;;1.83;;
80400;SDS011;69727;53.132;8.230;2023-06-01T06:33:03;3.57;;;1.37;;
80400;SDS011;69727;53.132;8.230;2023-06-01T06:35:28;6.85;;;1.73;;
80400;SDS011;69727;53.132;8.230;2023-06-01T06:37:53;4.60;;;1.53;;
80400;SDS011;69727;53.132;8.230;2023-06-01T06:40:19;4.10;;;1.60;;
80400;SDS011;69727;53.132;8.230;2023-06-01T06:42:45;3.75;;;1.30;;
80400;SDS011;69727;53.132;8.230;2023-06-01T06:45:11;4.63;;;1.60;;
80400;SDS011;69727;53.132;8.230;2023-06-01T06:47:36;5.75;;;1.60;;
80400;SDS011;69727;53.132;8.230;2023-06-01T06:50:02;8.23;;;2.50;;
80400;SDS011;69727;53.132;8.230;2023-06-01T06:52:27;7.93;;;2.08;;
80400;SDS011;69727;53.132;8.230;2023-06-01T06:54:52;3.97;;;1.77;;
80400;SDS011;69727;53.132;8.230;2023-06-01T06:57:18;6.63;;;2.08;;
80400;SDS011;69727;53.132;8.230;2023-06-01T06:59:43;5.43;;;2.13;;
80400;SDS011;69727;53.132;8.230;2023-06-01T07:02:09;7.33;;;2.10;;
80400;SDS011;69727;53.132;8.230;2023-06-01T07:04:34;5.25;;;2.10;;
80400;SDS011;69727;53.132;8.230;2023-06-01T07:07:00;6.32;;;2.28;;
80400;SDS011;69727;53.132;8.230;2023-06-01T07:09:30;6.57;;;2.15;;
80400;SDS011;69727;53.132;8.230;2023-06-01T07:11:56;6.80;;;2.03;;
80400;SDS011;69727;53.132;8.230;2023-06-01T07:14:21;5.30;;;2.30;;
80400;SDS011;69727;53.132;8.230;2023-06-01T07:16:46;6.35;;;1.90;;
80400;SDS011;69727;53.132;8.230;2023-06-01T07:32:40;6.10;;;2.05;;
80400;SDS011;69727;53.132;8.230;2023-06-01T07:35:19;7.90;;;2.25;;
80400;SDS011;69727;53.132;8.230;2023-06-01T07:37:49;9.85;;;2.30;;
80400;SDS011;69727;53.132;8.230;2023-06-01T07:40:14;6.63;;;2.20;;
80400;SDS011;69727;53.132;8.230;2023-06-01T07:42:41;7.00;;;2.10;;
80400;SDS011;69727;53.132;8.230;2023-06-01T07:45:07;5.15;;;1.90;;
80400;SDS011;69727;53.132;8.230;2023-06-01T07:47:34;6.95;;;2.35;;
80400;SDS011;69727;53.132;8.230;2023-06-01T07:49:59;8.48;;;2.05;;
80400;SDS011;69727;53.132;8.230;2023-06-01T07:52:25;8.33;;;2.17;;
80400;SDS011;69727;53.132;8.230;2023-06-01T07:54:51;7.18;;;2.03;;
80400;SDS011;69727;53.132;8.230;2023-06-01T07:57:16;9.93;;;2.13;;
80400;SDS011;69727;53.132;8.230;2023-06-01T07:59:42;6.72;;;2.42;;
80400;SDS011;69727;53.132;8.230;2023-06-01T08:02:07;8.50;;;2.80;;
80400;SDS011;69727;53.132;8.230;2023-06-01T08:04:33;6.45;;;2.20;;
80400;SDS011;69727;53.132;8.230;2023-06-01T08:06:59;9.02;;;2.47;;
80400;SDS011;69727;53.132;8.230;2023-06-01T08:09:27;7.78;;;2.20;;
80400;SDS011;69727;53.132;8.230;2023-06-01T08:11:53;5.72;;;1.98;;
80400;SDS011;69727;53.132;8.230;2023-06-01T08:14:19;6.90;;;2.10;;
80400;SDS011;69727;53.132;8.230;2023-06-01T08:16:44;10.63;;;3.30;;
80400;SDS011;69727;53.132;8.230;2023-06-01T08:19:10;8.43;;;2.00;;
80400;SDS011;69727;53.132;8.230;2023-06-01T08:21:36;6.35;;;2.20;;
80400;SDS011;69727;53.132;8.230;2023-06-01T08:24:03;8.15;;;2.30;;
80400;SDS011;69727;53.132;8.230;2023-06-01T08:26:29;5.35;;;2.40;;
80400;SDS011;69727;53.132;8.230;2023-06-01T08:28:54;5.82;;;2.10;;
80400;SDS011;69727;53.132;8.230;2023-06-01T08:31:20;6.50;;;2.22;;
80400;SDS011;69727;53.132;8.230;2023-06-01T08:33:47;9.38;;;2.45;;
80400;SDS011;69727;53.132;8.230;2023-06-01T08:36:13;11.25;;;2.67;;
80400;SDS011;69727;53.132;8.230;2023-06-01T08:38:39;9.23;;;2.63;;
80400;SDS011;69727;53.132;8.230;2023-06-01T08:41:20;6.63;;;2.40;;
80400;SDS011;69727;53.132;8.230;2023-06-01T08:43:55;7.43;;;2.33;;
80400;SDS011;69727;53.132;8.230;2023-06-01T08:46:23;8.70;;;2.40;;
80400;SDS011;69727;53.132;8.230;2023-06-01T08:48:52;6.13;;;2.58;;
80400;SDS011;69727;53.132;8.230;2023-06-01T08:51:20;10.05;;;2.40;;
80400;SDS011;69727;53.132;8.230;2023-06-01T08:53:47;5.55;;;2.40;;
80400;SDS011;69727;53.132;8.230;2023-06-01T08:56:14;9.20;;;2.88;;
80400;SDS011;69727;53.132;8.230;2023-06-01T08:58:40;7.90;;;2.40;;
80400;SDS011;69727;53.132;8.230;2023-06-01T09:01:06;9.55;;;2.92;;
80400;SDS011;69727;53.132;8.230;2023-06-01T09:03:32;7.10;;;2.03;;
80400;SDS011;69727;53.132;8.230;2023-06-01T09:05:57;7.13;;;2.00;;
80400;SDS011;69727;53.132;8.230;2023-06-01T09:08:23;7.75;;;2.60;;
80400;SDS011;69727;53.132;8.230;2023-06-01T09:10:49;9.52;;;2.40;;
80400;SDS011;69727;53.132;8.230;2023-06-01T09:13:29;11.77;;;2.15;;
80400;SDS011;69727;53.132;8.230;2023-06-01T09:15:58;10.40;;;1.83;;
80400;SDS011;69727;53.132;8.230;2023-06-01T09:18:24;6.72;;;1.85;;
80400;SDS011;69727;53.132;8.230;2023-06-01T09:20:49;6.40;;;1.90;;
80400;SDS011;69727;53.132;8.230;2023-06-01T09:23:24;5.35;;;1.83;;
80400;SDS011;69727;53.132;8.230;2023-06-01T09:26:04;12.27;;;3.05;;
80400;SDS011;69727;53.132;8.230;2023-06-01T09:28:41;3.80;;;1.60;;
80400;SDS011;69727;53.132;8.230;2023-06-01T09:34:12;6.65;;;1.98;;
80400;SDS011;69727;53.132;8.230;2023-06-01T09:36:43;7.32;;;1.92;;
80400;SDS011;69727;53.132;8.230;2023-06-01T09:39:10;7.55;;;2.33;;
80400;SDS011;69727;53.132;8.230;2023-06-01T09:41:47;6.78;;;2.67;;
80400;SDS011;69727;53.132;8.230;2023-06-01T09:44:41;6.50;;;1.80;;
80400;SDS011;69727;53.132;8.230;2023-06-01T09:47:11;7.40;;;1.85;;
80400;SDS011;69727;53.132;8.230;2023-06-01T09:49:39;6.68;;;1.90;;
80400;SDS011;69727;53.132;8.230;2023-06-01T09:54:36;6.87;;;2.17;;
80400;SDS011;69727;53.132;8.230;2023-06-01T09:57:03;6.40;;;2.25;;
80400;SDS011;69727;53.132;8.230;2023-06-01T09:59:30;5.80;;;1.83;;
80400;SDS011;69727;53.132;8.230;2023-06-01T10:02:03;8.10;;;1.80;;
80400;SDS011;69727;53.132;8.230;2023-06-01T10:04:30;5.72;;;2.20;;
80400;SDS011;69727;53.132;8.230;2023-06-01T10:06:57;6.25;;;1.88;;
80400;SDS011;69727;53.132;8.230;2023-06-01T10:09:24;5.97;;;1.80;;
80400;SDS011;69727;53.132;8.230;2023-06-01T10:11:52;9.70;;;2.40;;
80400;SDS011;69727;53.132;8.230;2023-06-01T10:14:22;7.05;;;2.10;;
80400;SDS011;69727;53.132;8.230;2023-06-01T10:16:52;8.32;;;1.67;;
80400;SDS011;69727;53.132;8.230;2023-06-01T10:19:19;7.75;;;1.90;;
80400;SDS011;69727;53.132;8.230;2023-06-01T10:21:46;6.30;;;1.70;;
80400;SDS011;69727;53.132;8.230;2023-06-01T10:24:18;5.03;;;2.40;;
80400;SDS011;69727;53.132;8.230;2023-06-01T10:29:12;10.57;;;2.20;;
80400;SDS011;69727;53.132;8.230;2023-06-01T10:31:42;7.05;;;2.17;;
80400;SDS011;69727;53.132;8.230;2023-06-01T10:34:11;8.27;;;2.08;;
80400;SDS011;69727;53.132;8.230;2023-06-01T10:39:21;12.93;;;2.33;;
80400;SDS011;69727;53.132;8.230;2023-06-01T10:41:51;7.53;;;2.00;;
80400;SDS011;69727;53.132;8.230;2023-06-01T10:47:50;8.23;;;2.00;;
80400;SDS011;69727;53.132;8.230;2023-06-01T10:57:39;11.40;;;2.00;;
80400;SDS011;69727;53.132;8.230;2023-06-01T11:00:12;5.32;;;1.90;;
80400;SDS011;69727;53.132;8.230;2023-06-01T11:02:42;9.70;;;2.13;;
80400;SDS011;69727;53.132;8.230;2023-06-01T11:08:00;12.38;;;2.38;;
80400;SDS011;69727;53.132;8.230;2023-06-01T11:13:17;8.70;;;2.40;;
80400;SDS011;69727;53.132;8.230;2023-06-01T11:21:15;6.97;;;2.60;;
80400;SDS011;69727;53.132;8.230;2023-06-01T11:23:41;8.02;;;2.42;;
80400;SDS011;69727;53.132;8.230;2023-06-01T11:26:07;6.57;;;2.28;;
80400;SDS011;69727;53.132;8.230;2023-06-01T11:28:33;8.30;;;2.40;;
80400;SDS011;69727;53.132;8.230;2023-06-01T11:31:00;11.52;;;2.45;;
80400;SDS011;69727;53.132;8.230;2023-06-01T11:33:29;7.13;;;2.83;;
80400;SDS011;69727;53.132;8.230;2023-06-01T11:36:00;13.55;;;2.55;;
80400;SDS011;69727;53.132;8.230;2023-06-01T11:38:38;6.95;;;2.33;;
80400;SDS011;69727;53.132;8.230;2023-06-01T11:41:06;10.40;;;2.88;;
80400;SDS011;69727;53.132;8.230;2023-06-01T11:43:32;7.93;;;2.38;;
80400;SDS011;69727;53.132;8.230;2023-06-01T11:46:02;7.45;;;2.28;;
80400;SDS011;69727;53.132;8.230;2023-06-01T11:48:36;10.18;;;2.78;;
80400;SDS011;69727;53.132;8.230;2023-06-01T11:51:02;7.05;;;2.50;;
80400;SDS011;69727;53.132;8.230;2023-06-01T11:53:29;8.50;;;2.88;;
80400;SDS011;69727;53.132;8.230;2023-06-01T11:55:58;8.55;;;2.72;;
80400;SDS011;69727;53.132;8.230;2023-06-01T12:00:50;10.07;;;2.60;;
80400;SDS011;69727;53.132;8.230;2023-06-01T12:03:16;7.88;;;2.70;;
80400;SDS011;69727;53.132;8.230;2023-06-01T12:05:42;8.63;;;3.00;;
80400;SDS011;69727;53.132;8.230;2023-06-01T12:08:17;8.23;;;2.60;;
80400;SDS011;69727;53.132;8.230;2023-06-01T12:10:45;10.45;;;2.92;;
80400;SDS011;69727;53.132;8.230;2023-06-01T12:13:12;14.45;;;3.20;;
80400;SDS011;69727;53.132;8.230;2023-06-01T12:15:39;8.20;;;2.67;;
80400;SDS011;69727;53.132;8.230;2023-06-01T12:18:04;10.50;;;2.47;;
80400;SDS011;69727;53.132;8.230;2023-06-01T12:25:34;9.57;;;3.00;;
80400;SDS011;69727;53.132;8.230;2023-06-01T12:28:06;10.38;;;2.75;;
80400;SDS011;69727;53.132;8.230;2023-06-01T12:30:35;9.98;;;2.60;;
80400;SDS011;69727;53.132;8.230;2023-06-01T12:33:01;8.30;;;2.70;;
80400;SDS011;69727;53.132;8.230;2023-06-01T12:35:29;10.57;;;2.70;;
80400;SDS011;69727;53.132;8.230;2023-06-01T12:38:08;9.80;;;3.20;;
80400;SDS011;69727;53.132;8.230;2023-06-01T12:40:37;12.77;;;3.17;;
80400;SDS011;69727;53.132;8.230;2023-06-01T12:43:03;9.63;;;2.67;;
80400;SDS011;69727;53.132;8.230;2023-06-01T12:45:37;11.50;;;2.97;;
80400;SDS011;69727;53.132;8.230;2023-06-01T12:48:03;7.22;;;2.58;;
80400;SDS011;69727;53.132;8.230;2023-06-01T12:50:29;7.50;;;3.30;;
80400;SDS011;69727;53.132;8.230;2023-06-01T12:52:55;10.60;;;3.50;;
80400;SDS011;69727;53.132;8.230;2023-06-01T12:55:20;8.47;;;2.70;;
80400;SDS011;69727;53.132;8.230;2023-06-01T12:57:53;7.47;;;2.55;;
80400;SDS011;69727;53.132;8.230;2023-06-01T13:00:20;9.60;;;2.33;;
80400;SDS011;69727;53.132;8.230;2023-06-01T13:02:46;10.07;;;2.90;;
80400;SDS011;69727;53.132;8.230;2023-06-01T13:05:15;11.55;;;2.72;;
80400;SDS011;69727;53.132;8.230;2023-06-01T13:07:45;5.72;;;2.35;;
80400;SDS011;69727;53.132;8.230;2023-06-01T13:10:11;7.50;;;2.60;;
80400;SDS011;69727;53.132;8.230;2023-06-01T13:12:38;10.48;;;3.30;;
80400;SDS011;69727;53.132;8.230;2023-06-01T13:15:05;10.63;;;2.90;;
80400;SDS011;69727;53.132;8.230;2023-06-01T13:17:31;9.48;;;2.33;;
80400;SDS011;69727;53.132;8.230;2023-06-01T13:19:57;9.38;;;2.38;;
80400;SDS011;69727;53.132;8.230;2023-06-01T13:22:22;7.93;;;2.53;;
80400;SDS011;69727;53.132;8.230;2023-06-01T13:24:48;8.60;;;2.57;;
80400;SDS011;69727;53.132;8.230;2023-06-01T13:27:13;5.72;;;2.50;;
80400;SDS011;69727;53.132;8.230;2023-06-01T13:29:39;10.32;;;2.53;;
80400;SDS011;69727;53.132;8.230;2023-06-01T13:32:05;9.05;;;2.78;;
80400;SDS011;69727;53.132;8.230;2023-06-01T13:34:30;6.80;;;2.60;;
80400;SDS011;69727;53.132;8.230;2023-06-01T13:36:56;10.40;;;2.92;;
80400;SDS011;69727;53.132;8.230;2023-06-01T13:39:22;8.35;;;2.80;;
80400;SDS011;69727;53.132;8.230;2023-06-01T13:41:48;8.00;;;2.50;;
80400;SDS011;69727;53.132;8.230;2023-06-01T13:44:13;5.80;;;2.92;;
80400;SDS011;69727;53.132;8.230;2023-06-01T13:46:39;8.90;;;2.70;;
80400;SDS011;69727;53.132;8.230;2023-06-01T13:49:04;9.93;;;3.10;;
80400;SDS011;69727;53.132;8.230;2023-06-01T13:51:29;10.47;;;2.57;;
80400;SDS011;69727;53.132;8.230;2023-06-01T13:53:55;7.80;;;2.67;;
80400;SDS011;69727;53.132;8.230;2023-06-01T13:56:21;8.98;;;2.20;;
80400;SDS011;69727;53.132;8.230;2023-06-01T13:58:48;7.70;;;2.80;;
80400;SDS011;69727;53.132;8.230;2023-06-01T14:01:13;7.47;;;2.92;;
80400;SDS011;69727;53.132;8.230;2023-06-01T14:03:39;9.93;;;2.30;;
80400;SDS011;69727;53.132;8.230;2023-06-01T14:06:04;8.80;;;2.60;;
80400;SDS011;69727;53.132;8.230;2023-06-01T14:08:30;9.27;;;2.83;;
80400;SDS011;69727;53.132;8.230;2023-06-01T14:10:56;11.27;;;2.63;;
80400;SDS011;69727;53.132;8.230;2023-06-01T14:13:21;8.88;;;2.20;;
80400;SDS011;69727;53.132;8.230;2023-06-01T14:15:47;11.52;;;2.40;;
80400;SDS011;69727;53.132;8.230;2023-06-01T14:18:12;10.65;;;2.47;;
80400;SDS011;69727;53.132;8.230;2023-06-01T14:20:37;8.85;;;2.20;;
80400;SDS011;69727;53.132;8.230;2023-06-01T14:23:03;8.77;;;2.50;;
80400;SDS011;69727;53.132;8.230;2023-06-01T14:25:28;7.88;;;2.17;;
80400;SDS011;69727;53.132;8.230;2023-06-01T14:27:54;6.57;;;1.88;;
80400;SDS011;69727;53.132;8.230;2023-06-01T14:30:19;9.88;;;1.98;;
80400;SDS011;69727;53.132;8.230;2023-06-01T14:32:45;6.97;;;1.92;;
80400;SDS011;69727;53.132;8.230;2023-06-01T14:35:10;7.47;;;1.90;;
80400;SDS011;69727;53.132;8.230;2023-06-01T14:37:40;8.27;;;1.98;;
80400;SDS011;69727;53.132;8.230;2023-06-01T14:40:06;4.88;;;1.88;;
80400;SDS011;69727;53.132;8.230;2023-06-01T14:42:32;5.53;;;1.90;;
80400;SDS011;69727;53.132;8.230;2023-06-01T14:44:58;8.00;;;2.20;;
80400;SDS011;69727;53.132;8.230;2023-06-01T14:47:23;6.05;;;1.92;;
80400;SDS011;69727;53.132;8.230;2023-06-01T14:49:49;12.57;;;2.30;;
80400;SDS011;69727;53.132;8.230;2023-06-01T14:52:14;7.53;;;1.92;;
80400;SDS011;69727;53.132;8.230;2023-06-01T14:54:39;6.37;;;1.80;;
80400;SDS011;69727;53.132;8.230;2023-06-01T14:57:05;5.63;;;1.60;;
80400;SDS011;69727;53.132;8.230;2023-06-01T14:59:32;8.30;;;2.15;;
80400;SDS011;69727;53.132;8.230;2023-06-01T15:01:58;7.18;;;1.50;;
80400;SDS011;69727;53.132;8.230;2023-06-01T15:04:24;6.60;;;1.98;;
80400;SDS011;69727;53.132;8.230;2023-06-01T15:06:50;6.10;;;1.97;;
80400;SDS011;69727;53.132;8.230;2023-06-01T15:09:15;7.60;;;1.63;;
80400;SDS011;69727;53.132;8.230;2023-06-01T15:11:40;6.93;;;1.80;;
80400;SDS011;69727;53.132;8.230;2023-06-01T15:14:06;4.53;;;1.83;;
80400;SDS011;69727;53.132;8.230;2023-06-01T15:16:31;7.95;;;1.83;;
80400;SDS011;69727;53.132;8.230;2023-06-01T15:18:57;8.82;;;1.73;;
80400;SDS011;69727;53.132;8.230;2023-06-01T15:21:25;5.63;;;1.67;;
80400;SDS011;69727;53.132;8.230;2023-06-01T15:23:51;8.93;;;1.85;;
80400;SDS011;69727;53.132;8.230;2023-06-01T15:26:16;6.78;;;1.70;;
80400;SDS011;69727;53.132;8.230;2023-06-01T15:28:42;6.68;;;1.52;;
80400;SDS011;69727;53.132;8.230;2023-06-01T15:31:07;8.25;;;1.50;;
80400;SDS011;69727;53.132;8.230;2023-06-01T15:33:33;8.63;;;1.70;;
80400;SDS011;69727;53.132;8.230;2023-06-01T15:36:07;4.05;;;1.60;;
80400;SDS011;69727;53.132;8.230;2023-06-01T15:38:33;6.30;;;1.70;;
80400;SDS011;69727;53.132;8.230;2023-06-01T15:41:00;7.32;;;1.60;;
80400;SDS011;69727;53.132;8.230;2023-06-01T15:43:26;8.18;;;1.75;;
80400;SDS011;69727;53.132;8.230;2023-06-01T15:45:52;7.18;;;1.55;;
80400;SDS011;69727;53.132;8.230;2023-06-01T15:48:17;4.28;;;1.58;;
80400;SDS011;69727;53.132;8.230;2023-06-01T15:50:43;5.47;;;2.00;;
80400;SDS011;69727;53.132;8.230;2023-06-01T15:53:09;7.57;;;1.70;;
80400;SDS011;69727;53.132;8.230;2023-06-01T15:55:41;7.65;;;1.70;;
80400;SDS011;69727;53.132;8.230;2023-06-01T15:58:08;5.93;;;1.55;;
80400;SDS011;69727;53.132;8.230;2023-06-01T16:00:33;8.47;;;2.03;;
80400;SDS011;69727;53.132;8.230;2023-06-01T16:02:59;11.43;;;1.75;;
80400;SDS011;69727;53.132;8.230;2023-06-01T16:05:24;8.45;;;1.85;;